createdAt,value
2018-03-03T00:00:10.458Z,27.03
2018-03-03T00:02:36.748Z,25.77
2018-03-03T00:05:02.642Z,28.05
2018-03-03T00:07:28.514Z,26.13
2018-03-03T00:09:54.422Z,24.63
2018-03-03T00:12:20.370Z,26.10
2018-03-03T00:14:46.230Z,25.23
2018-03-03T00:17:12.154Z,25.67
2018-03-03T00:19:38.036Z,26.03
2018-03-03T00:22:03.917Z,24.63
2018-03-03T00:24:30.048Z,28.73
2018-03-03T00:26:56.030Z,29.70
2018-03-03T00:29:21.888Z,28.90
2018-03-03T00:31:47.801Z,27.30
2018-03-03T00:34:13.662Z,27.27
2018-03-03T00:36:39.637Z,27.20
2018-03-03T00:39:05.540Z,26.70
2018-03-03T00:41:31.407Z,26.13
2018-03-03T00:43:57.278Z,26.33
2018-03-03T00:46:23.191Z,24.87
2018-03-03T00:48:49.162Z,24.17
2018-03-03T00:51:15.050Z,23.43
2018-03-03T00:53:40.946Z,27.03
2018-03-03T00:56:06.817Z,26.73
2018-03-03T00:58:32.668Z,25.17
2018-03-03T01:00:58.686Z,25.07
2018-03-03T01:03:24.566Z,27.40
2018-03-03T01:05:50.425Z,26.70
2018-03-03T01:08:16.630Z,26.57
2018-03-03T01:10:42.519Z,25.37
2018-03-03T01:13:08.470Z,25.97
2018-03-03T01:15:34.387Z,26.23
2018-03-03T01:18:00.260Z,26.70
2018-03-03T01:20:26.135Z,25.33
2018-03-03T01:22:52.043Z,25.07
2018-03-03T01:25:17.998Z,25.20
2018-03-03T01:27:43.873Z,24.73
2018-03-03T01:30:09.779Z,22.53
2018-03-03T01:32:35.646Z,22.73
2018-03-03T01:35:02.447Z,26.50
2018-03-03T01:37:28.849Z,24.55
2018-03-03T01:39:54.721Z,24.80
2018-03-03T01:42:20.579Z,24.67
2018-03-03T01:44:46.502Z,24.67
2018-03-03T01:47:12.366Z,23.23
2018-03-03T01:49:38.318Z,24.03
2018-03-03T01:52:04.234Z,23.50
2018-03-03T01:54:30.094Z,24.13
2018-03-03T01:56:55.956Z,23.17
2018-03-03T01:59:21.856Z,22.97
2018-03-03T02:01:47.810Z,24.93
2018-03-03T02:04:13.782Z,22.00
2018-03-03T02:06:39.673Z,25.53
2018-03-03T02:09:05.553Z,24.80
2018-03-03T02:11:31.425Z,24.67
2018-03-03T02:13:57.445Z,24.93
2018-03-03T02:16:23.318Z,24.52
2018-03-03T02:18:49.192Z,22.23
2018-03-03T02:21:15.333Z,24.97
2018-03-03T02:23:41.188Z,23.30
2018-03-03T02:26:07.129Z,24.13
2018-03-03T02:28:33.057Z,24.30
2018-03-03T02:30:58.916Z,25.30
2018-03-03T02:33:24.790Z,23.03
2018-03-03T02:35:50.681Z,23.23
2018-03-03T02:38:16.753Z,25.60
2018-03-03T02:40:42.634Z,25.85
2018-03-03T02:43:08.939Z,25.30
2018-03-03T02:45:34.816Z,24.95
2018-03-03T02:48:00.709Z,27.97
2018-03-03T02:50:26.729Z,23.37
2018-03-03T02:52:52.592Z,25.20
2018-03-03T02:55:18.479Z,25.60
2018-03-03T02:57:44.386Z,25.50
2018-03-03T03:00:10.263Z,21.77
2018-03-03T03:02:36.213Z,25.97
2018-03-03T03:05:02.163Z,25.37
2018-03-03T03:07:28.058Z,25.47
2018-03-03T03:09:53.919Z,26.20
2018-03-03T03:12:19.835Z,25.37
2018-03-03T03:14:45.787Z,23.73
2018-03-03T03:17:11.663Z,26.13
2018-03-03T03:19:37.566Z,25.83
2018-03-03T03:22:03.423Z,26.60
2018-03-03T03:24:29.297Z,25.20
2018-03-03T03:26:55.322Z,25.47
2018-03-03T03:29:21.189Z,25.48
2018-03-03T03:31:47.055Z,24.57
2018-03-03T03:34:12.983Z,26.67
2018-03-03T03:36:38.855Z,24.63
2018-03-03T03:39:04.815Z,27.10
2018-03-03T03:41:31.050Z,27.87
2018-03-03T03:43:56.920Z,25.20
2018-03-03T03:46:22.780Z,26.57
2018-03-03T03:48:48.697Z,26.77
2018-03-03T03:51:14.644Z,20.60
2018-03-03T03:53:40.510Z,23.80
2018-03-03T03:56:08.293Z,24.47
2018-03-03T03:58:34.197Z,25.92
2018-03-03T04:01:00.054Z,23.33
2018-03-03T04:03:26.302Z,24.57
2018-03-03T04:05:52.149Z,26.15
2018-03-03T04:08:18.014Z,26.30
2018-03-03T04:10:44.588Z,25.93
2018-03-03T04:13:10.462Z,25.58
2018-03-03T04:15:36.409Z,25.67
2018-03-03T04:18:02.326Z,25.47
2018-03-03T04:20:28.205Z,27.23
2018-03-03T04:22:54.059Z,27.10
2018-03-03T04:25:20.014Z,24.40
2018-03-03T04:27:46.009Z,24.97
2018-03-03T04:30:11.934Z,24.90
2018-03-03T04:32:37.869Z,27.57
2018-03-03T04:35:03.798Z,23.30
2018-03-03T04:37:29.646Z,24.63
2018-03-03T04:39:55.654Z,28.50
2018-03-03T04:42:21.509Z,28.40
2018-03-03T04:44:47.372Z,23.87
2018-03-03T04:47:13.279Z,25.23
2018-03-03T04:49:39.178Z,26.40
2018-03-03T04:52:05.154Z,28.00
2018-03-03T04:54:31.076Z,26.97
2018-03-03T04:56:57.881Z,24.80
2018-03-03T04:59:36.736Z,25.95
2018-03-03T05:02:05.738Z,24.77
2018-03-03T05:07:39.650Z,27.98
2018-03-03T05:10:06.256Z,25.77
2018-03-03T05:12:34.118Z,24.92
2018-03-03T05:15:01.889Z,28.17
2018-03-03T05:20:42.351Z,27.48
2018-03-03T05:23:15.283Z,25.42
2018-03-03T05:25:47.282Z,26.30
2018-03-03T05:28:19.706Z,26.45
2018-03-03T05:30:51.742Z,24.15
2018-03-03T05:33:23.903Z,25.65
2018-03-03T05:35:55.984Z,28.77
2018-03-03T05:38:28.007Z,25.88
2018-03-03T05:44:11.082Z,25.65
2018-03-03T05:46:43.101Z,26.48
2018-03-03T05:49:15.075Z,25.05
2018-03-03T05:54:51.462Z,26.05
2018-03-03T05:57:23.495Z,26.05
2018-03-03T05:59:55.477Z,20.15
2018-03-03T06:02:34.966Z,27.02
2018-03-03T06:05:15.953Z,27.55
2018-03-03T06:07:48.924Z,29.58
2018-03-03T06:10:17.810Z,30.98
2018-03-03T06:12:43.662Z,25.67
2018-03-03T06:15:09.610Z,27.03
2018-03-03T06:17:35.692Z,27.63
2018-03-03T06:20:01.645Z,25.67
2018-03-03T06:22:27.550Z,26.07
2018-03-03T06:24:53.458Z,20.33
2018-03-03T06:27:20.055Z,28.53
2018-03-03T06:29:45.910Z,27.23
2018-03-03T06:32:11.886Z,27.60
2018-03-03T06:34:37.746Z,27.00
2018-03-03T06:37:03.626Z,26.83
2018-03-03T06:39:29.581Z,28.03
2018-03-03T06:41:55.446Z,26.20
2018-03-03T06:44:21.382Z,24.77
2018-03-03T06:46:47.286Z,28.03
2018-03-03T06:49:13.154Z,28.30
2018-03-03T06:51:39.055Z,26.73
2018-03-03T06:54:05.934Z,23.10
2018-03-03T06:56:31.897Z,27.52
2018-03-03T06:58:57.757Z,28.40
2018-03-03T07:01:23.664Z,29.07
2018-03-03T07:03:49.601Z,25.87
2018-03-03T07:06:15.479Z,27.67
2018-03-03T07:08:41.544Z,26.03
2018-03-03T07:11:07.414Z,28.48
2018-03-03T07:13:34.217Z,26.97
2018-03-03T07:16:00.280Z,26.15
2018-03-03T07:18:26.133Z,27.77
2018-03-03T07:20:54.471Z,28.07
2018-03-03T07:23:20.377Z,29.45
2018-03-03T07:25:47.972Z,27.87
2018-03-03T07:28:13.897Z,26.23
2018-03-03T07:30:39.847Z,27.93
2018-03-03T07:33:05.850Z,26.00
2018-03-03T07:35:31.788Z,27.73
2018-03-03T07:37:57.707Z,25.60
2018-03-03T07:40:23.637Z,27.63
2018-03-03T07:42:49.663Z,28.50
2018-03-03T07:45:15.969Z,29.05
2018-03-03T07:47:41.849Z,26.98
2018-03-03T07:50:07.726Z,26.07
2018-03-03T07:52:33.673Z,28.83
2018-03-03T07:54:59.524Z,27.10
2018-03-03T07:57:25.562Z,28.17
2018-03-03T07:59:51.455Z,26.70
2018-03-03T08:02:17.323Z,28.43
2018-03-03T08:04:43.263Z,28.97
2018-03-03T08:07:09.201Z,27.53
2018-03-03T08:09:35.173Z,27.17
2018-03-03T08:12:01.056Z,25.80
2018-03-03T08:14:26.981Z,26.73
2018-03-03T08:16:52.884Z,28.87
2018-03-03T08:19:18.766Z,27.70
2018-03-03T08:21:44.861Z,24.17
2018-03-03T08:24:10.726Z,26.23
2018-03-03T08:26:36.606Z,26.07
2018-03-03T08:29:02.568Z,24.77
2018-03-03T08:31:28.445Z,25.90
2018-03-03T08:33:54.456Z,27.17
2018-03-03T08:36:20.413Z,22.42
2018-03-03T08:38:46.308Z,23.33
2018-03-03T08:41:12.218Z,19.67
2018-03-03T08:43:38.137Z,17.87
2018-03-03T08:46:04.158Z,20.80
2018-03-03T08:48:30.040Z,23.00
2018-03-03T08:50:55.976Z,20.17
2018-03-03T08:53:21.934Z,20.67
2018-03-03T08:55:47.815Z,22.03
2018-03-03T08:58:13.830Z,23.87
2018-03-03T09:00:39.691Z,21.25
2018-03-03T09:03:07.611Z,21.97
2018-03-03T09:05:33.963Z,20.12
2018-03-03T09:07:59.890Z,20.60
2018-03-03T09:10:25.875Z,18.40
2018-03-03T09:12:52.175Z,20.40
2018-03-03T09:15:18.150Z,21.33
2018-03-03T09:17:44.101Z,20.83
2018-03-03T09:20:10.426Z,20.43
2018-03-03T09:22:36.480Z,20.77
2018-03-03T09:25:02.415Z,18.98
2018-03-03T09:27:28.387Z,16.60
2018-03-03T09:29:54.380Z,19.07
2018-03-03T09:32:20.258Z,14.67
2018-03-03T09:34:46.348Z,17.53
2018-03-03T09:37:13.230Z,17.37
2018-03-03T09:39:39.199Z,16.10
2018-03-03T09:42:05.199Z,19.87
2018-03-03T09:44:31.114Z,14.55
2018-03-03T09:46:57.082Z,18.67
2018-03-03T09:49:23.053Z,19.73
2018-03-03T09:51:48.975Z,18.23
2018-03-03T09:54:15.785Z,19.47
2018-03-03T09:56:41.968Z,19.80
2018-03-03T09:59:08.011Z,19.90
2018-03-03T10:01:33.995Z,19.02
2018-03-03T10:04:00.176Z,17.33
2018-03-03T10:06:27.601Z,18.95
2018-03-03T10:08:55.524Z,16.42
2018-03-03T10:11:21.549Z,17.73
2018-03-03T10:13:47.475Z,19.65
2018-03-03T10:16:13.386Z,19.83
2018-03-03T10:18:39.686Z,19.73
2018-03-03T10:21:05.626Z,21.20
2018-03-03T10:23:31.647Z,19.17
2018-03-03T10:25:57.564Z,19.53
2018-03-03T10:28:23.458Z,16.40
2018-03-03T10:30:49.340Z,16.90
2018-03-03T10:33:15.821Z,20.23
2018-03-03T10:35:41.762Z,18.67
2018-03-03T10:38:07.726Z,20.00
2018-03-03T10:40:33.789Z,18.20
2018-03-03T10:42:59.651Z,18.03
2018-03-03T10:45:25.522Z,20.77
2018-03-03T10:47:51.576Z,20.07
2018-03-03T10:50:17.486Z,22.10
2018-03-03T10:52:43.435Z,21.33
2018-03-03T10:55:09.337Z,21.77
2018-03-03T10:57:35.200Z,20.37
2018-03-03T11:00:01.147Z,17.13
2018-03-03T11:02:27.070Z,19.70
2018-03-03T11:04:52.939Z,20.57
2018-03-03T11:07:18.899Z,17.70
2018-03-03T11:09:44.972Z,18.43
2018-03-03T11:12:10.979Z,18.73
2018-03-03T11:14:36.832Z,18.27
2018-03-03T11:17:02.778Z,20.00
2018-03-03T11:19:28.674Z,18.23
2018-03-03T11:21:54.531Z,18.10
2018-03-03T11:24:20.496Z,17.90
2018-03-03T11:26:46.369Z,20.23
2018-03-03T11:29:12.250Z,15.83
2018-03-03T11:31:38.166Z,14.50
2018-03-03T11:34:04.057Z,14.77
2018-03-03T11:36:30.006Z,14.83
2018-03-03T11:38:55.901Z,15.53
2018-03-03T11:41:21.768Z,13.93
2018-03-03T11:43:47.611Z,13.60
2018-03-03T11:46:13.519Z,15.30
2018-03-03T11:48:39.487Z,14.93
2018-03-03T11:51:05.390Z,14.10
2018-03-03T11:53:31.299Z,12.67
2018-03-03T11:55:57.167Z,13.33
2018-03-03T11:58:23.027Z,14.10
2018-03-03T12:00:49.348Z,13.47
2018-03-03T12:03:15.209Z,13.97
2018-03-03T12:05:41.137Z,14.50
2018-03-03T12:08:07.045Z,14.17
2018-03-03T12:10:32.914Z,13.20
2018-03-03T12:12:58.883Z,16.47
2018-03-03T12:15:24.863Z,14.77
2018-03-03T12:17:50.739Z,15.73
2018-03-03T12:20:16.622Z,15.93
2018-03-03T12:22:42.934Z,15.90
2018-03-03T12:25:08.876Z,13.90
2018-03-03T12:27:34.738Z,14.20
2018-03-03T12:30:00.650Z,16.10
2018-03-03T12:32:26.526Z,15.53
2018-03-03T12:34:52.447Z,17.27
2018-03-03T12:37:18.426Z,15.07
2018-03-03T12:39:44.272Z,14.20
2018-03-03T12:42:10.126Z,15.50
2018-03-03T12:44:36.058Z,14.63
2018-03-03T12:47:01.974Z,15.90
2018-03-03T12:49:27.951Z,13.57
2018-03-03T12:51:54.261Z,15.03
2018-03-03T12:54:20.190Z,16.50
2018-03-03T12:56:46.106Z,16.33
2018-03-03T12:59:12.055Z,16.43
2018-03-03T13:01:38.058Z,13.97
2018-03-03T13:04:03.914Z,14.33
2018-03-03T13:06:29.822Z,14.40
2018-03-03T13:08:55.760Z,15.30
2018-03-03T13:11:21.637Z,14.97
2018-03-03T13:13:47.873Z,16.17
2018-03-03T13:16:13.742Z,15.30
2018-03-03T13:18:39.665Z,16.47
2018-03-03T13:21:05.671Z,17.73
2018-03-03T13:23:31.532Z,16.40
2018-03-03T13:25:58.075Z,15.37
2018-03-03T13:28:23.999Z,14.47
2018-03-03T13:30:49.881Z,14.77
2018-03-03T13:33:15.774Z,14.93
2018-03-03T13:35:41.776Z,15.90
2018-03-03T13:38:07.726Z,15.47
2018-03-03T13:40:33.646Z,14.53
2018-03-03T13:42:59.610Z,14.33
2018-03-03T13:45:25.511Z,14.50
2018-03-03T13:47:51.382Z,13.83
2018-03-03T13:50:17.398Z,13.37
2018-03-03T13:52:43.314Z,13.23
2018-03-03T13:55:09.215Z,14.47
2018-03-03T13:57:35.124Z,13.43
2018-03-03T14:00:01.057Z,15.00
2018-03-03T14:02:27.081Z,14.37
2018-03-03T14:04:53.047Z,13.43
2018-03-03T14:07:19.012Z,13.10
2018-03-03T14:09:44.947Z,14.87
2018-03-03T14:12:11.076Z,13.57
2018-03-03T14:14:37.045Z,14.77
2018-03-03T14:17:02.905Z,14.80
2018-03-03T14:19:28.832Z,14.17
2018-03-03T14:21:54.727Z,13.97
2018-03-03T14:24:20.603Z,15.17
2018-03-03T14:26:46.680Z,14.07
2018-03-03T14:29:12.550Z,13.30
2018-03-03T14:31:38.441Z,14.33
2018-03-03T14:34:04.363Z,13.23
2018-03-03T14:36:30.217Z,14.70
2018-03-03T14:38:56.290Z,14.10
2018-03-03T14:41:22.381Z,14.03
2018-03-03T14:43:48.474Z,14.27
2018-03-03T14:46:14.339Z,14.60
2018-03-03T14:48:40.264Z,15.60
2018-03-03T14:51:06.247Z,14.23
2018-03-03T14:53:32.137Z,15.53
2018-03-03T14:55:58.046Z,15.03
2018-03-03T14:58:23.946Z,14.87
2018-03-03T15:00:49.906Z,14.80
2018-03-03T15:03:16.003Z,14.37
2018-03-03T15:05:41.864Z,15.10
2018-03-03T15:08:07.744Z,14.90
2018-03-03T15:10:33.676Z,15.47
2018-03-03T15:12:59.571Z,15.53
2018-03-03T15:15:25.542Z,16.07
2018-03-03T15:17:51.462Z,17.20
2018-03-03T15:20:17.324Z,15.77
2018-03-03T15:22:43.187Z,15.70
2018-03-03T15:25:09.588Z,15.23
2018-03-03T15:27:35.967Z,15.97
2018-03-03T15:30:01.956Z,15.37
2018-03-03T15:32:27.955Z,16.60
2018-03-03T15:34:54.022Z,14.67
2018-03-03T15:37:20.026Z,17.00
2018-03-03T15:39:46.075Z,16.60
2018-03-03T15:42:11.951Z,15.57
2018-03-03T15:44:37.918Z,16.07
2018-03-03T15:47:03.914Z,16.87
2018-03-03T15:49:29.797Z,17.30
2018-03-03T15:51:55.736Z,15.27
2018-03-03T15:54:21.642Z,16.70
2018-03-03T15:56:47.525Z,16.63
2018-03-03T15:59:13.399Z,18.67
2018-03-03T16:01:39.365Z,17.00
2018-03-03T16:04:05.330Z,17.90
2018-03-03T16:06:31.226Z,17.10
2018-03-03T16:08:57.220Z,16.80
2018-03-03T16:11:23.210Z,18.00
2018-03-03T16:13:49.121Z,18.37
2018-03-03T16:16:15.205Z,19.30
2018-03-03T16:18:41.124Z,17.67
2018-03-03T16:21:07.010Z,17.43
2018-03-03T16:23:32.982Z,17.10
2018-03-03T16:25:58.892Z,18.07
2018-03-03T16:28:24.903Z,18.43
2018-03-03T16:30:50.889Z,18.20
2018-03-03T16:33:16.753Z,19.30
2018-03-03T16:35:42.844Z,19.07
2018-03-03T16:38:08.790Z,19.25
2018-03-03T16:40:34.746Z,20.27
2018-03-03T16:43:00.623Z,18.30
2018-03-03T16:45:26.564Z,18.43
2018-03-03T16:47:52.490Z,18.43
2018-03-03T16:50:18.443Z,20.43
2018-03-03T16:52:44.481Z,18.33
2018-03-03T16:55:10.383Z,19.48
2018-03-03T16:57:36.276Z,17.90
2018-03-03T17:00:02.270Z,18.73
2018-03-03T17:02:28.161Z,20.93
2018-03-03T17:04:54.149Z,18.77
2018-03-03T17:07:20.118Z,18.93
2018-03-03T17:09:45.984Z,19.43
2018-03-03T17:12:11.918Z,21.47
2018-03-03T17:14:37.958Z,21.63
2018-03-03T17:17:04.829Z,20.75
2018-03-03T17:19:30.733Z,20.23
2018-03-03T17:24:58.182Z,19.55
2018-03-03T17:27:24.069Z,18.77
2018-03-03T17:29:49.958Z,19.40
2018-03-03T17:32:15.954Z,20.17
2018-03-03T17:34:41.837Z,19.00
2018-03-03T17:37:07.719Z,21.93
2018-03-03T17:39:33.650Z,21.70
2018-03-03T17:41:59.572Z,24.27
2018-03-03T17:44:25.433Z,22.37
2018-03-03T17:46:51.345Z,20.63
2018-03-03T17:49:17.226Z,19.90
2018-03-03T17:51:43.113Z,19.37
2018-03-03T17:54:09.021Z,18.63
2018-03-03T17:56:34.989Z,19.13
2018-03-03T17:59:00.862Z,20.20
2018-03-03T18:01:26.785Z,20.57
2018-03-03T18:03:52.645Z,22.10
2018-03-03T18:06:18.527Z,20.93
2018-03-03T18:08:44.761Z,22.13
2018-03-03T18:11:10.636Z,20.52
2018-03-03T18:13:36.509Z,19.07
2018-03-03T18:16:02.517Z,20.73
2018-03-03T18:18:30.315Z,20.00
2018-03-03T18:20:56.192Z,20.67
2018-03-03T18:23:22.110Z,18.93
2018-03-03T18:25:48.105Z,17.60
2018-03-03T18:28:14.057Z,19.45
2018-03-03T18:30:39.982Z,18.80
2018-03-03T18:33:13.938Z,19.37
2018-03-03T18:35:40.414Z,20.05
2018-03-03T18:38:06.314Z,18.60
2018-03-03T18:40:32.214Z,19.63
2018-03-03T18:42:58.919Z,20.70
2018-03-03T18:45:24.892Z,20.42
2018-03-03T18:47:50.988Z,22.70
2018-03-03T18:50:16.896Z,21.73
2018-03-03T18:52:42.758Z,21.23
2018-03-03T18:55:08.636Z,21.67
2018-03-03T18:57:34.565Z,21.33
2018-03-03T19:00:00.437Z,20.30
2018-03-03T19:02:26.359Z,21.53
2018-03-03T19:04:52.278Z,22.73
2018-03-03T19:07:18.178Z,22.60
2018-03-03T19:09:44.096Z,21.97
2018-03-03T19:12:10.453Z,22.53
2018-03-03T19:14:36.348Z,20.33
2018-03-03T19:17:02.222Z,21.03
2018-03-03T19:19:28.138Z,24.10
2018-03-03T19:21:54.034Z,22.93
2018-03-03T19:24:19.940Z,21.27
2018-03-03T19:26:45.846Z,22.40
2018-03-03T19:29:11.709Z,21.63
2018-03-03T19:31:37.575Z,22.47
2018-03-03T19:34:03.486Z,20.80
2018-03-03T19:36:29.353Z,24.37
2018-03-03T19:38:55.204Z,22.23
2018-03-03T19:41:21.120Z,22.60
2018-03-03T19:43:46.982Z,23.07
2018-03-03T19:46:12.846Z,23.13
2018-03-03T19:48:38.753Z,22.37
2018-03-03T19:51:04.647Z,22.57
2018-03-03T19:53:30.497Z,22.77
2018-03-03T19:55:56.485Z,22.73
2018-03-03T19:58:22.352Z,22.30
2018-03-03T20:00:48.196Z,22.07
2018-03-03T20:03:14.200Z,22.27
2018-03-03T20:05:40.053Z,21.12
2018-03-03T20:08:05.992Z,22.13
2018-03-03T20:10:32.394Z,20.50
2018-03-03T20:12:58.278Z,20.98
2018-03-03T20:15:24.149Z,20.67
2018-03-03T20:17:50.069Z,21.17
2018-03-03T20:20:15.963Z,23.10
2018-03-03T20:22:41.827Z,22.03
2018-03-03T20:25:07.742Z,21.83
2018-03-03T20:27:33.588Z,23.83
2018-03-03T20:29:59.461Z,23.97
2018-03-03T20:32:25.531Z,23.37
2018-03-03T20:34:51.460Z,22.62
2018-03-03T20:37:17.329Z,23.20
2018-03-03T20:39:43.227Z,22.10
2018-03-03T20:42:09.121Z,23.87
2018-03-03T20:44:35.356Z,22.20
2018-03-03T20:47:01.426Z,23.50
2018-03-03T20:49:27.382Z,23.92
2018-03-03T20:51:53.251Z,23.27
2018-03-03T20:54:19.601Z,23.30
2018-03-03T20:56:45.544Z,23.12
2018-03-03T20:59:11.417Z,22.53
2018-03-03T21:01:37.329Z,24.50
2018-03-03T21:04:03.640Z,19.17
2018-03-03T21:06:29.558Z,21.25
2018-03-03T21:08:55.818Z,21.43
2018-03-03T21:11:22.588Z,22.25
2018-03-03T21:13:48.491Z,23.87
2018-03-03T21:16:14.630Z,26.37
2018-03-03T21:18:40.490Z,26.02
2018-03-03T21:21:06.369Z,23.73
2018-03-03T21:23:32.335Z,23.67
2018-03-03T21:25:58.255Z,22.17
2018-03-03T21:28:24.178Z,22.97
2018-03-03T21:30:50.091Z,25.73
2018-03-03T21:33:15.967Z,23.87
2018-03-03T21:35:41.865Z,24.40
2018-03-03T21:38:07.793Z,26.10
2018-03-03T21:40:33.714Z,25.53
2018-03-03T21:42:59.570Z,25.27
2018-03-03T21:45:25.525Z,24.20
2018-03-03T21:47:51.405Z,26.47
2018-03-03T21:50:17.333Z,24.67
2018-03-03T21:52:43.287Z,25.47
2018-03-03T21:55:09.214Z,24.03
2018-03-03T21:57:35.188Z,25.57
2018-03-03T22:00:01.138Z,25.60
2018-03-03T22:02:27.064Z,25.17
2018-03-03T22:04:53.199Z,24.33
2018-03-03T22:07:19.234Z,25.48
2018-03-03T22:09:45.141Z,23.83
2018-03-03T22:12:11.069Z,23.53
2018-03-03T22:14:37.014Z,24.03
2018-03-03T22:17:02.963Z,23.27
2018-03-03T22:19:28.849Z,22.70
2018-03-03T22:21:54.748Z,23.10
2018-03-03T22:24:20.615Z,24.57
2018-03-03T22:26:46.506Z,24.57
2018-03-03T22:29:12.405Z,23.93
2018-03-03T22:31:38.270Z,24.10
2018-03-03T22:34:04.150Z,23.97
2018-03-03T22:36:30.113Z,25.37
2018-03-03T22:38:56.005Z,25.87
2018-03-03T22:41:21.863Z,22.77
2018-03-03T22:43:47.787Z,22.73
2018-03-03T22:46:13.663Z,25.07
2018-03-03T22:48:39.539Z,21.57
2018-03-03T22:51:05.705Z,23.57
2018-03-03T22:53:31.584Z,24.95
2018-03-03T22:55:57.450Z,24.63
2018-03-03T22:58:23.356Z,24.97
2018-03-03T23:00:49.312Z,26.33
2018-03-03T23:03:15.264Z,26.33
2018-03-03T23:05:41.192Z,22.87
2018-03-03T23:08:07.088Z,26.10
2018-03-03T23:10:32.954Z,25.57
2018-03-03T23:12:58.919Z,24.83
2018-03-03T23:15:24.832Z,26.40
2018-03-03T23:17:50.710Z,26.17
2018-03-03T23:20:16.609Z,27.53
2018-03-03T23:22:43.034Z,26.60
2018-03-03T23:25:08.909Z,25.92
2018-03-03T23:27:34.829Z,25.67
2018-03-03T23:30:00.703Z,27.13
2018-03-03T23:32:26.583Z,26.40
2018-03-03T23:34:52.508Z,26.63
2018-03-03T23:37:18.380Z,25.30
2018-03-03T23:39:44.645Z,26.23
2018-03-03T23:42:10.583Z,25.05
2018-03-03T23:44:36.473Z,26.53
2018-03-03T23:47:02.357Z,26.40
2018-03-03T23:49:28.269Z,28.43
2018-03-03T23:51:54.185Z,27.70
2018-03-03T23:54:20.103Z,26.10
2018-03-03T23:56:45.998Z,25.93
2018-03-03T23:59:11.890Z,27.13
